• Join FlightAware (Why Join?)
  • Login
  • US Flag 
04:47AM EDT


 

Airport Tracker/Info


-or-


 

Live Flight TrackerFlight Track Log ✈ JIA2429 ✈ 26-Jun-2013 ✈ KCLT - KAGS

Flight Track Log - Related Links

Times and Time Zones

All times are in EDT time to prevent confusion due to time zone crossing. See the JIA2429 flight status page for this flight to view local times or setup timezone preferences in your user account.

Time Position Orientation Groundspeed Altitude Reporting Facility
EDT Latitude Longitude Course Direction KTS MPH feet Rate Location/Type
11:29AM 35.1886 -80.9358 190° South 173 199 1,600  Level Atlanta Center
11:30AM 35.1111 -80.9233 172° South 248 285 3,900 2,100 Climbing Atlanta Center
11:31AM 35.0336 -80.9086 171° South 304 350 6,500 2,580 Climbing Atlanta Center
11:32AM 34.9492 -80.9204 224° Southwest  Level FlightAware Approximate
11:32AM 34.9669 -80.9161 185° South 297 342 8,700  Level Atlanta Center
11:33AM 34.8865 -80.9935 224° Southwest  Level FlightAware Approximate
11:34AM 34.8081 -81.0260 190° South  Level FlightAware Approximate
11:34AM 34.8594 -81.0281 221° Southwest 323 372 12,700  Level Jacksonville Center
11:35AM 34.7764 -81.0525 194° South 312 359 14,000 600 Climbing Jacksonville Center
11:36AM 34.6808 -81.0772 192° South 335 386 14,000  Level Jacksonville Center
11:37AM 34.5872 -81.0994 191° South 352 405 14,000  Level Jacksonville Center
11:38AM 34.4917 -81.1217 191° South 352 405 14,000  Level Jacksonville Center
11:39AM 34.3981 -81.1411 190° South 352 405 14,000  Level Jacksonville Center
11:40AM 34.3111 -81.2006 209° Southwest 358 412 14,000  Level Jacksonville Center
11:41AM 34.2431 -81.2522 212° Southwest 351 404 14,000  Level Jacksonville Center
11:42AM 34.1625 -81.3164 213° Southwest 351 404 14,000  Level Jacksonville Center
11:43AM 34.0839 -81.3806 214° Southwest 351 404 14,000 -60 Level Jacksonville Center
11:44AM 34.0056 -81.4497 216° Southwest 351 404 13,900 -600 Descending Jacksonville Center
11:45AM 33.9269 -81.5136 214° Southwest 346 398 12,900 -1,020 Descending Jacksonville Center
11:46AM 33.8483 -81.5747 213° Southwest 346 398 11,900 -960 Descending Jacksonville Center
11:47AM 33.7758 -81.6358 215° Southwest 346 398 11,000 -480 Descending Jacksonville Center
11:48AM 33.7056 -81.6942 215° Southwest 327 376 11,000 -360 Level Jacksonville Center
11:49AM 33.6433 -81.7400 212° Southwest 302 348 10,300 -720 Descending Jacksonville Center